logo
Rechercher aéroport 
image banner adimage banner adimage banner ad
image banner ad

EI0042 - Radisson Blu Limerick Hotel

Situé à Limerick, Ireland

ICAO - , IATA -

Données fournies par Airmate  

Information générale

Coordonnées: N52°40'58" W8°42'38"
Élévation : 7 feet MSL.
Variation magnétique : -2° East
Voir autres Aéroports à County Limerick

Données opérationnelles

Special qualification required
Heure actuelle UTC:
Heure actuelle locale:
Météo à : EINN - Shannon ( 15 km )
METAR: EINN 301930Z 33008KT 9999 BKN035 13/08 Q1024 NOSIG
TAF: TAF AMD EINN 301849Z 3018/3118 33010KT 9999 FEW020 BKN035 BECMG 3114/3116 30010KT
Voir NOTAMs / SUP AIP / TFR affectant cet aéroport [VIEW]
Fréquences de communication: [VIEW]

Pistes:

Coordonnées de l'aéroport

Adresse: Limerick Ireland

Vue satellite de EI0042